Latest Weather Observations for Port Macquarie Airport

IDN60801

Issued at 11:12 pm EST Monday 18 June 2018 (issued every 10 minutes, with the page automatically refreshed every 10 minutes)

About weather observations | Map of weather stations | Latest weather observations for NSW | Other Formats
Station Details ID: 060139 Name: PORT MACQUARIE AIRPORT AWS Lat: -31.43 Lon: 152.87 Height: 4.2 m
Data from the previous 72 hours. | See also: Recent months at Port Macquarie Airport
Date/Time
EST
Temp
°C
App
Temp
°C
Dew
Point
°C
Rel
Hum
%
Delta-T
°C
Wind Press
QNH
hPa
Press
MSL
hPa
Rain since
9am
mm
Dir  Spd
km/h
Gust
km/h
Spd
kts
Gust
kts
18/11:00pm 11.0 5.7 8.4 84 1.3 WSW 26 35 14 19 1017.9 1017.9 6.2
18/10:30pm 11.1 6.9 8.1 82 1.5 WSW 20 33 11 18 1017.8 1017.8 6.2
18/10:00pm 10.5 7.7 8.4 87 1.0 WSW 13 19 7 10 1017.5 1017.5 6.2
18/09:30pm 9.7 7.7 8.6 93 0.5 SW 9 11 5 6 1017.6 1017.6 6.2
18/09:00pm 9.9 7.1 8.5 91 0.7 SW 13 19 7 10 1017.5 1017.5 6.2
18/08:30pm 10.3 6.4 8.6 89 0.8 WSW 19 26 10 14 1017.4 1017.4 6.0
18/08:00pm 10.4 5.8 8.3 87 1.0 SW 22 30 12 16 1017.6 1017.6 5.4
18/07:30pm 10.5 7.2 8.1 85 1.2 SW 15 20 8 11 1017.2 1017.2 4.2
18/07:00pm 11.3 8.0 6.6 73 2.2 WSW 13 20 7 11 1017.0 1017.0 3.8
18/06:30pm 11.8 7.7 6.3 69 2.6 W 17 24 9 13 1016.5 1016.5 3.8
18/06:00pm 11.6 7.0 6.3 70 2.5 W 20 28 11 15 1015.8 1015.8 3.8
18/05:30pm 11.4 7.3 6.1 70 2.5 WSW 17 26 9 14 1015.8 1015.8 3.8
18/05:00pm 11.6 7.4 5.9 68 2.7 W 17 26 9 14 1015.7 1015.7 3.8
18/04:30pm 12.1 5.8 5.7 65 3.0 WSW 28 39 15 21 1015.4 1015.4 3.8
18/04:00pm 12.3 6.4 5.9 65 3.0 WSW 26 41 14 22 1015.1 1015.1 3.8
18/03:30pm 12.0 5.1 6.3 68 2.7 WSW 32 46 17 25 1014.8 1014.8 3.8
18/03:21pm 12.4 6.3 6.5 67 2.8 WSW 28 46 15 25 1014.6 1014.6 3.8
18/03:00pm 11.9 5.5 7.0 72 2.3 WSW 30 46 16 25 1014.4 1014.4 3.8
18/02:30pm 11.5 5.0 8.0 79 1.7 WSW 32 50 17 27 1014.3 1014.3 3.8
18/02:00pm 11.4 6.5 8.3 81 1.5 WSW 24 32 13 17 1014.1 1014.1 3.2
18/01:30pm 11.0 7.1 8.8 86 1.1 WSW 19 30 10 16 1014.0 1014.0 3.2
18/01:00pm 10.5 6.6 8.6 88 0.9 WSW 19 26 10 14 1014.1 1014.1 2.8
18/12:30pm 11.0 6.9 8.6 85 1.2 WSW 20 30 11 16 1014.2 1014.2 1.2
18/12:00pm 11.9 7.9 8.2 78 1.8 SW 19 26 10 14 1014.3 1014.3 0.0
18/11:30am 12.6 8.4 7.3 70 2.6 SW 19 30 10 16 1014.3 1014.3 0.0
18/11:00am 14.8 9.2 5.3 53 4.5 SW 24 37 13 20 1014.2 1014.2 0.0
18/10:30am 14.3 9.5 4.9 53 4.4 WSW 19 26 10 14 1014.4 1014.4 0.0
18/10:00am 14.4 10.1 5.2 54 4.3 W 17 24 9 13 1014.3 1014.3 0.0
18/09:30am 13.5 9.4 4.6 55 4.1 WNW 15 20 8 11 1014.5 1014.5 0.0
18/09:00am 12.3 9.4 4.5 59 3.5 WNW 9 13 5 7 1014.3 1014.3 0.0
18/08:30am 11.0 8.6 5.3 68 2.6 NW 7 9 4 5 1014.4 1014.4 0.0
18/08:00am 7.7 5.4 5.5 86 1.0 WNW 7 9 4 5 1014.5 1014.5 0.0
18/07:30am 6.0 4.9 5.0 93 0.4 CALM 0 0 0 0 1014.7 1014.7 0.0
18/07:00am 4.8 2.3 3.6 92 0.5 NNE 6 9 3 5 1014.6 1014.6 0.0
18/06:30am 4.0 2.5 2.8 92 0.5 CALM 0 0 0 0 1014.4 1014.4 0.0
18/06:00am 3.6 2.0 2.3 91 0.5 CALM 0 6 0 3 1014.1 1014.1 0.0
18/05:30am 3.6 0.6 1.8 88 0.7 WSW 7 9 4 5 1014.0 1014.0 0.0
18/05:00am 4.9 1.9 2.3 83 1.0 NNW 7 9 4 5 1013.9 1013.9 0.0
18/04:30am 4.7 1.0 2.2 84 1.0 NNW 11 15 6 8 1013.7 1013.7 0.0
18/04:00am 6.4 3.0 1.9 73 1.8 NW 9 11 5 6 1013.9 1013.9 0.0
18/03:30am 4.7 2.6 1.9 82 1.1 ESE 2 6 1 3 1014.3 1014.3 0.0
18/03:00am 4.6 1.6 0.6 75 1.5 WNW 6 11 3 6 1014.1 1014.1 0.0
18/02:30am 3.3 -0.5 1.5 88 0.7 NW 11 15 6 8 1014.1 1014.1 0.0
18/02:00am 2.9 -0.3 0.8 86 0.8 W 7 9 4 5 1014.5 1014.5 0.0
18/01:30am 4.3 1.3 1.8 84 1.0 NW 7 11 4 6 1014.6 1014.6 0.0
18/01:00am 4.7 2.6 1.6 80 1.2 N 2 7 1 4 1014.9 1014.9 0.0
18/12:30am 5.0 2.1 2.7 85 0.9 NW 7 11 4 6 1014.8 1014.8 0.0
18/12:00am 6.9 3.3 0.8 65 2.4 W 9 11 5 6 1015.0 1015.0 0.0
 
Date/Time
EST
Temp
°C
App
Temp
°C
Dew
Point
°C
Rel
Hum
%
Delta-T
°C
Wind Press
QNH
hPa
Press
MSL
hPa
Rain since
9am
mm
Dir  Spd
km/h
Gust
km/h
Spd
kts
Gust
kts
17/11:30pm 8.0 4.1 1.0 61 2.8 WNW 11 13 6 7 1015.1 1015.1 0.0
17/11:00pm 7.4 4.1 0.2 60 2.8 W 7 11 4 6 1015.2 1015.2 0.0
17/10:30pm 9.5 5.9 0.4 53 3.7 W 9 15 5 8 1015.5 1015.5 0.0
17/10:00pm 10.1 5.7 0.4 51 3.9 W 13 17 7 9 1015.6 1015.6 0.0
17/09:30pm 9.7 5.7 0.6 53 3.7 W 11 15 6 8 1015.5 1015.5 0.0
17/09:00pm 8.7 5.4 0.2 55 3.4 NW 7 9 4 5 1015.8 1015.8 0.0
17/08:30pm 11.1 7.0 -0.1 46 4.5 W 11 17 6 9 1015.9 1015.9 0.0
17/08:00pm 11.1 7.4 -0.1 46 4.5 W 9 13 5 7 1015.7 1015.7 0.0
17/07:30pm 11.7 7.9 -0.4 43 4.9 W 9 15 5 8 1015.3 1015.3 0.0
17/07:00pm 12.1 7.5 -0.7 41 5.2 W 13 24 7 13 1015.0 1015.0 0.0
17/06:30pm 12.9 8.3 -0.7 39 5.5 WSW 13 22 7 12 1014.8 1014.8 0.0
17/06:00pm 13.2 7.8 -1.2 37 5.8 WNW 17 26 9 14 1013.7 1013.7 0.0
17/05:30pm 13.5 7.2 -1.3 36 6.0 W 22 32 12 17 1013.3 1013.3 0.0
17/05:00pm 13.8 7.2 -0.6 37 5.9 W 24 32 13 17 1013.0 1013.0 0.0
17/04:30pm 14.5 8.3 -0.4 36 6.2 W 22 32 12 17 1012.8 1012.8 0.0
17/04:00pm 15.3 8.7 -0.4 34 6.6 W 24 43 13 23 1012.7 1012.7 0.0
17/03:30pm 15.9 10.1 -0.3 33 6.8 W 20 32 11 17 1012.7 1012.7 0.0
17/03:00pm 16.2 9.6 -0.5 32 7.1 W 24 35 13 19 1012.3 1012.3 0.0
17/02:51pm 16.3 8.9 -0.4 32 7.1 WNW 28 46 15 25 1012.1 1012.1 0.0
17/02:30pm 16.3 9.8 0.4 34 6.8 W 24 39 13 21 1012.1 1012.1 0.0
17/02:00pm 16.5 9.3 0.6 34 6.9 W 28 43 15 23 1011.9 1011.9 0.0
17/01:30pm 16.5 9.7 0.6 34 6.9 W 26 44 14 24 1011.9 1011.9 0.0
17/01:00pm 16.3 9.4 0.4 34 6.9 W 26 39 14 21 1012.1 1012.1 0.0
17/12:30pm 16.3 8.2 0.0 33 7.0 WNW 32 50 17 27 1012.4 1012.4 0.0
17/12:05pm 16.3 9.1 0.4 34 6.8 W 28 48 15 26 1012.9 1012.9 0.0
17/12:00pm 16.2 10.0 -0.1 33 6.9 W 22 35 12 19 1013.0 1013.0 0.0
17/11:30am 16.1 10.6 0.7 35 6.7 W 19 30 10 16 1013.7 1013.7 0.0
17/11:00am 15.5 10.0 0.5 36 6.4 W 19 32 10 17 1014.3 1014.3 0.0
17/10:30am 14.6 8.5 0.1 37 6.1 W 22 39 12 21 1014.5 1014.5 0.0
17/10:00am 14.0 7.9 0.3 39 5.8 W 22 33 12 18 1014.8 1014.8 0.0
17/09:30am 13.1 8.9 3.7 53 4.2 W 15 19 8 10 1015.0 1015.0 0.0
17/09:00am 11.1 7.8 4.8 65 2.9 WNW 11 17 6 9 1015.0 1015.0 0.0
17/08:30am 6.8 5.3 5.1 89 0.7 WSW 2 7 1 4 1015.1 1015.1 0.0
17/08:00am 5.0 3.8 4.6 97 0.2 CALM 0 0 0 0 1015.0 1015.0 0.0
17/07:30am 2.5 0.8 1.9 96 0.2 CALM 0 6 0 3 1015.1 1015.1 0.0
17/07:00am 0.2 -1.9 -0.5 95 0.3 CALM 0 0 0 0 1014.9 1014.9 0.0
17/06:30am 0.4 -1.6 -0.3 95 0.2 CALM 0 0 0 0 1014.9 1014.9 0.0
17/06:00am 1.7 -0.1 1.0 95 0.3 CALM 0 0 0 0 1014.7 1014.7 0.0
17/05:30am 1.2 -0.7 0.5 95 0.3 CALM 0 0 0 0 1014.8 1014.8 0.0
17/05:00am 1.0 -0.9 0.3 95 0.3 CALM 0 0 0 0 1014.6 1014.6 0.0
17/04:30am 1.2 -0.7 0.5 95 0.3 CALM 0 6 0 3 1014.6 1014.6 0.0
17/04:10am 1.7 -0.1 1.0 95 0.3 CALM 0 0 0 0 1014.7 1014.7 0.0
17/04:00am 1.9 0.1 1.2 95 0.3 CALM 0 0 0 0 1014.8 1014.8 0.0
17/03:39am 1.6 -0.3 0.7 94 0.3 CALM 0 0 0 0 1015.1 1015.1 0.0
17/03:30am 1.2 -0.7 0.3 94 0.3 CALM 0 0 0 0 1015.0 1015.0 0.0
17/03:00am 1.7 -0.2 0.8 94 0.3 CALM 0 2 0 1 1014.9 1014.9 0.0
17/02:30am 2.5 0.8 1.6 94 0.3 CALM 0 0 0 0 1014.9 1014.9 0.0
17/02:00am 2.8 1.1 1.9 94 0.4 CALM 0 0 0 0 1014.9 1014.9 0.0
17/01:30am 2.5 0.7 1.5 93 0.4 CALM 0 6 0 3 1015.3 1015.3 0.0
17/01:00am 3.5 1.6 2.6 94 0.4 NW 2 7 1 4 1015.4 1015.4 0.0
17/12:30am 4.5 2.0 3.8 95 0.3 NNW 6 9 3 5 1015.5 1015.5 0.0
17/12:00am 3.7 2.1 2.7 93 0.4 CALM 0 7 0 4 1015.7 1015.7 0.0
 
Date/Time
EST
Temp
°C
App
Temp
°C
Dew
Point
°C
Rel
Hum
%
Delta-T
°C
Wind Press
QNH
hPa
Press
MSL
hPa
Rain since
9am
mm
Dir  Spd
km/h
Gust
km/h
Spd
kts
Gust
kts
16/11:30pm 5.5 3.5 4.5 93 0.4 NW 4 13 2 7 1016.0 1016.0 0.0
16/11:00pm 4.7 2.6 3.7 93 0.4 SSW 4 7 2 4 1016.2 1016.2 0.0
16/10:30pm 4.5 1.3 3.3 92 0.5 SW 9 11 5 6 1016.1 1016.1 0.0
16/10:00pm 5.0 3.6 3.3 89 0.7 CALM 0 0 0 0 1015.8 1015.8 0.0
16/09:30pm 5.3 2.8 3.8 90 0.6 SW 6 11 3 6 1016.1 1016.1 0.0
16/09:00pm 6.0 4.7 4.2 88 0.8 CALM 0 0 0 0 1015.6 1015.6 0.0
16/08:30pm 6.0 4.6 3.3 83 1.1 CALM 0 13 0 7 1015.7 1015.7 0.0
16/08:00pm 8.2 6.3 5.1 81 1.4 NW 4 9 2 5 1015.8 1015.8 0.0
16/07:30pm 10.6 7.7 4.5 66 2.7 WNW 9 11 5 6 1016.0 1016.0 0.0
16/07:00pm 7.6 5.1 4.9 83 1.2 W 7 9 4 5 1015.8 1015.8 0.0
16/06:30pm 8.5 6.3 6.0 84 1.1 SW 7 9 4 5 1015.5 1015.5 0.0
16/06:00pm 10.1 8.9 4.5 68 2.5 CALM 0 0 0 0 1015.1 1015.1 0.0
16/05:30pm 13.6 11.2 4.5 54 4.2 NW 6 9 3 5 1014.8 1014.8 0.0
16/05:00pm 15.7 12.6 3.8 45 5.5 WNW 9 11 5 6 1014.6 1014.6 0.0
16/04:30pm 17.5 14.4 3.8 40 6.4 W 9 17 5 9 1014.5 1014.5 0.0
16/04:00pm 18.4 15.0 4.2 39 6.7 W 11 17 6 9 1014.4 1014.4 0.0
16/03:30pm 19.6 17.8 7.0 44 6.4 NNW 6 11 3 6 1014.4 1014.4 0.0
16/03:00pm 19.2 16.9 4.9 39 6.9 NE 6 13 3 7 1014.2 1014.2 0.0
16/02:30pm 19.2 16.4 5.3 40 6.8 N 9 13 5 7 1014.3 1014.3 0.0
16/02:00pm 18.8 15.9 4.6 39 6.8 N 9 13 5 7 1014.5 1014.5 0.0
16/01:30pm 18.8 16.6 6.0 43 6.3 ENE 7 13 4 7 1014.9 1014.9 0.0
16/01:00pm 18.8 15.4 6.0 43 6.3 NNE 13 17 7 9 1015.3 1015.3 0.0
16/12:30pm 18.8 15.6 6.9 46 6.0 NNE 13 17 7 9 1015.9 1015.9 0.0
16/12:00pm 18.5 15.6 4.7 40 6.6 NNE 9 13 5 7 1016.5 1016.5 0.0
16/11:30am 18.0 14.7 2.3 35 7.1 NE 9 13 5 7 1017.2 1017.2 0.0
16/11:00am 17.3 16.0 7.6 53 4.9 NNE 4 9 2 5 1017.9 1017.9 0.0
16/10:30am 16.1 14.5 7.8 58 4.2 NNW 6 9 3 5 1018.3 1018.3 0.0
16/10:00am 14.1 11.8 7.6 65 3.2 NW 9 11 5 6 1018.8 1018.8 0.0
16/09:30am 12.0 10.4 7.9 76 2.0 NNW 6 7 3 4 1019.0 1019.0 0.0
16/09:00am 9.8 8.8 7.2 84 1.2 NW 2 6 1 3 1018.9 1018.9 0.0
16/08:30am 7.9 5.9 6.4 90 0.7 NNW 6 7 3 4 1018.9 1018.9 0.0
16/08:00am 6.0 5.0 5.6 97 0.2 CALM 0 0 0 0 1018.9 1018.9 0.0
16/07:30am 3.8 2.3 3.2 96 0.2 CALM 0 0 0 0 1018.8 1018.8 0.0
16/07:00am 1.5 -0.4 0.8 95 0.3 CALM 0 0 0 0 1018.8 1018.8 0.0
16/06:30am 1.3 -0.6 0.6 95 0.3 CALM 0 0 0 0 1018.5 1018.5 0.0
16/06:00am 1.7 -0.1 1.0 95 0.3 CALM 0 0 0 0 1018.3 1018.3 0.0
16/05:30am 2.5 0.0 1.8 95 0.3 NW 4 7 2 4 1018.0 1018.0 0.0
16/05:00am 2.9 -0.1 2.2 95 0.3 WNW 7 9 4 5 1017.8 1017.8 0.0
16/04:30am 2.7 1.0 2.0 95 0.3 CALM 0 0 0 0 1017.9 1017.9 0.0
16/04:00am 3.2 0.5 2.6 96 0.2 NW 6 7 3 4 1018.0 1018.0 0.0
16/03:30am 2.8 1.1 2.1 95 0.3 CALM 0 0 0 0 1018.0 1018.0 0.0
16/03:00am 2.4 -0.5 1.5 94 0.3 NW 6 7 3 4 1018.2 1018.2 0.0
16/02:30am 2.9 1.2 2.0 94 0.4 CALM 0 0 0 0 1018.1 1018.1 0.0
16/02:00am 3.3 1.7 2.4 94 0.4 CALM 0 0 0 0 1018.2 1018.2 0.0
16/01:30am 3.3 1.7 2.4 94 0.4 CALM 0 0 0 0 1018.0 1018.0 0.0
16/01:00am 3.5 1.9 2.5 93 0.4 CALM 0 0 0 0 1017.8 1017.8 0.0
16/12:30am 4.1 2.6 3.1 93 0.4 CALM 0 0 0 0 1017.8 1017.8 0.0
16/12:00am 4.7 2.2 3.8 94 0.4 WSW 6 9 3 5 1017.9 1017.9 0.0
 
Date/Time
EST
Temp
°C
App
Temp
°C
Dew
Point
°C
Rel
Hum
%
Delta-T
°C
Wind Press
QNH
hPa
Press
MSL
hPa
Rain since
9am
mm
Dir  Spd
km/h
Gust
km/h
Spd
kts
Gust
kts
15/11:30pm 4.6 2.1 3.6 93 0.4 SW 6 7 3 4 1018.0 1018.0 0.0

Other Formats:

Comma delimited format used in spreadsheet applications
http://www.bom.gov.au/fwo/IDN60801/IDN60801.94786.axf

JavaScript Object Notation format (JSON) in row-major order
http://www.bom.gov.au/fwo/IDN60801/IDN60801.94786.json